Time;durP1;ratioP1;P1;durP2;ratioP2;P2;SDS_P1;SDS_P2;PMS_P1;PMS_P2;Temp;Humidity;BMP_temperature;BMP_pressure;BME280_temperature;BME280_humidity;BME280_pressure;Samples;Min_cycle;Max_cycle;Signal;HPM_P1;HPM_P2
2023/08/11 00:01:25;;;;;;;3.70;2.60;;;;;;;17.15;100.00;99847.04;104998;1251;1003434;-75
2023/08/11 00:03:52;;;;;;;4.70;3.50;;;;;;;17.12;100.00;99845.08;105712;1257;74413;-74
2023/08/11 00:06:18;;;;;;;4.30;3.20;;;;;;;17.09;100.00;99846.33;105792;1251;70860;-74
2023/08/11 00:08:45;;;;;;;4.20;3.00;;;;;;;17.06;100.00;99834.41;105786;1255;72352;-74
2023/08/11 00:11:12;;;;;;;8.30;3.50;;;;;;;17.03;100.00;99833.66;105790;1251;61301;-74
2023/08/11 00:13:40;;;;;;;6.70;3.50;;;;;;;17.00;100.00;99832.09;105777;1251;61254;-75
2023/08/11 00:16:07;;;;;;;5.10;3.00;;;;;;;16.99;100.00;99828.96;105845;1255;74688;-74
2023/08/11 00:18:33;;;;;;;6.90;3.10;;;;;;;16.99;100.00;99827.91;105754;1251;71203;-75
2023/08/11 00:21:00;;;;;;;5.80;3.20;;;;;;;16.99;100.00;99826.31;105756;1255;61240;-74
2023/08/11 00:23:27;;;;;;;5.00;3.80;;;;;;;16.98;100.00;99822.98;105773;1251;61788;-75
2023/08/11 00:25:53;;;;;;;4.80;2.90;;;;;;;16.99;100.00;99823.85;105926;1251;61382;-74
2023/08/11 00:28:20;;;;;;;5.60;2.80;;;;;;;16.99;100.00;99824.02;105785;1251;73258;-75
2023/08/11 00:30:48;;;;;;;5.20;2.70;;;;;;;16.96;100.00;99824.68;105801;1251;70976;-75
2023/08/11 00:33:15;;;;;;;6.20;3.00;;;;;;;16.94;100.00;99825.52;105622;1251;71060;-74
2023/08/11 00:35:43;;;;;;;3.40;2.80;;;;;;;16.92;100.00;99827.95;105757;1251;61736;-74
2023/08/11 00:38:10;;;;;;;7.60;3.10;;;;;;;16.90;100.00;99835.11;105747;1251;61307;-75
2023/08/11 00:40:37;;;;;;;3.30;2.80;;;;;;;16.91;100.00;99839.86;105735;1254;74561;-74
2023/08/11 00:43:04;;;;;;;5.60;2.80;;;;;;;16.90;100.00;99838.50;105778;1256;70896;-75
2023/08/11 00:45:30;;;;;;;5.00;2.70;;;;;;;16.88;100.00;99835.21;105738;1251;61355;-75
2023/08/11 00:47:57;;;;;;;7.20;3.10;;;;;;;16.87;100.00;99831.73;105772;1251;61292;-75
2023/08/11 00:50:25;;;;;;;5.00;2.90;;;;;;;16.85;100.00;99829.39;105858;1251;61346;-74
2023/08/11 00:52:52;;;;;;;8.00;3.10;;;;;;;16.82;100.00;99824.75;105768;1251;74559;-75
2023/08/11 00:55:19;;;;;;;5.20;2.70;;;;;;;16.82;100.00;99819.80;105712;1257;71111;-75
2023/08/11 00:57:46;;;;;;;6.00;2.70;;;;;;;16.82;100.00;99815.89;105754;1255;72548;-75
2023/08/11 01:00:14;;;;;;;11.10;2.90;;;;;;;16.82;100.00;99813.42;105682;1256;61375;-75
2023/08/11 01:02:42;;;;;;;3.30;2.50;;;;;;;16.82;100.00;99814.98;105887;1256;61254;-75
2023/08/11 01:05:10;;;;;;;9.30;3.50;;;;;;;16.84;100.00;99814.73;105936;1251;74500;-75
2023/08/11 01:07:58;;;;;;;4.30;2.60;;;;;;;16.85;100.00;99815.56;105751;1255;70817;-74
2023/08/11 01:10:33;;;;;;;17.00;3.10;;;;;;;16.87;100.00;99810.87;105765;1256;72549;-74
2023/08/11 01:13:14;;;;;;;6.10;2.50;;;;;;;16.88;100.00;99808.32;105754;1251;61275;-75
2023/08/11 01:15:48;;;;;;;4.40;2.90;;;;;;;16.89;100.00;99809.85;105742;1251;61295;-75
2023/08/11 01:18:15;;;;;;;3.20;2.30;;;;;;;16.91;100.00;99805.85;105631;1256;73067;-74
2023/08/11 01:20:42;;;;;;;2.90;2.50;;;;;;;16.91;100.00;99800.87;105654;1251;70993;-74
2023/08/11 01:23:23;;;;;;;3.20;2.70;;;;;;;16.90;100.00;99794.20;105736;1255;72310;-74
2023/08/11 01:25:51;;;;;;;3.00;2.60;;;;;;;16.89;100.00;99790.04;105782;1256;61260;-75
2023/08/11 01:28:18;;;;;;;3.80;2.70;;;;;;;16.86;100.00;99784.36;105760;1251;61329;-74
2023/08/11 01:30:45;;;;;;;5.60;2.20;;;;;;;16.84;100.00;99783.90;105778;1256;74741;-75
2023/08/11 01:33:13;;;;;;;3.20;2.60;;;;;;;16.83;100.00;99780.60;105783;1256;69839;-74
2023/08/11 01:35:40;;;;;;;3.10;2.70;;;;;;;16.81;100.00;99777.69;105782;1251;72499;-74
2023/08/11 01:38:09;;;;;;;6.20;2.40;;;;;;;16.81;100.00;99775.38;105856;1251;61811;-74
2023/08/11 01:40:37;;;;;;;3.90;2.20;;;;;;;16.79;100.00;99773.37;105767;1254;61199;-74
2023/08/11 01:43:05;;;;;;;2.80;2.60;;;;;;;16.77;100.00;99780.53;105890;1254;74377;-74
2023/08/11 01:45:32;;;;;;;3.30;3.00;;;;;;;16.76;100.00;99777.45;105824;1254;69601;-74
2023/08/11 01:47:58;;;;;;;6.60;2.90;;;;;;;16.74;100.00;99777.00;105760;1257;61396;-75
2023/08/11 01:50:27;;;;;;;5.30;3.00;;;;;;;16.72;100.00;99776.59;105792;1251;61414;-75
2023/08/11 01:52:55;;;;;;;6.00;2.50;;;;;;;16.68;100.00;99771.48;105742;1257;61290;-75
2023/08/11 01:55:24;;;;;;;6.70;3.00;;;;;;;16.62;100.00;99772.15;105805;1254;74673;-75
2023/08/11 01:57:51;;;;;;;3.90;3.10;;;;;;;16.58;100.00;99769.21;105585;1251;70949;-75
2023/08/11 02:00:26;;;;;;;3.00;2.50;;;;;;;16.53;100.00;99767.52;105746;1251;71141;-75
2023/08/11 02:02:53;;;;;;;3.10;2.50;;;;;;;16.52;100.00;99761.56;105779;1256;61813;-74
2023/08/11 02:05:20;;;;;;;4.60;2.80;;;;;;;16.51;100.00;99756.30;105783;1251;61276;-75
2023/08/11 02:07:46;;;;;;;3.90;2.40;;;;;;;16.50;100.00;99759.39;105741;1251;74436;-76
2023/08/11 02:10:14;;;;;;;5.20;2.80;;;;;;;16.47;100.00;99755.44;105771;1251;69845;-74
2023/08/11 02:12:41;;;;;;;3.40;2.40;;;;;;;16.45;100.00;99757.73;105904;1253;72636;-75
2023/08/11 02:15:08;;;;;;;5.20;2.70;;;;;;;16.41;100.00;99758.79;105808;1251;61731;-76
2023/08/11 02:17:37;;;;;;;4.20;2.70;;;;;;;16.40;100.00;99764.90;105839;1253;61254;-75
2023/08/11 02:20:21;;;;;;;2.80;2.50;;;;;;;16.38;100.00;99769.27;105845;1251;74478;-75
2023/08/11 02:22:49;;;;;;;4.00;2.60;;;;;;;16.35;100.00;99770.48;105798;1251;70967;-74
2023/08/11 02:25:15;;;;;;;3.10;2.70;;;;;;;16.32;100.00;99769.73;105816;1256;72354;-75
2023/08/11 02:27:43;;;;;;;4.10;2.50;;;;;;;16.30;100.00;99770.58;105794;1251;62009;-80
2023/08/11 02:30:12;;;;;;;3.70;3.10;;;;;;;16.28;100.00;99768.34;105869;1251;61346;-75
2023/08/11 02:32:39;;;;;;;4.90;3.20;;;;;;;16.26;100.00;99769.34;105823;1251;74730;-74
2023/08/11 02:35:06;;;;;;;7.80;3.80;;;;;;;16.23;100.00;99778.74;105805;1251;69612;-74
2023/08/11 02:37:33;;;;;;;4.00;3.10;;;;;;;16.17;100.00;99780.82;105784;1251;72508;-75
2023/08/11 02:40:00;;;;;;;10.40;4.00;;;;;;;16.13;100.00;99780.16;105751;1250;61997;-75
2023/08/11 02:42:27;;;;;;;3.90;3.10;;;;;;;16.10;100.00;99776.05;105644;1251;61373;-75
2023/08/11 02:44:54;;;;;;;3.90;2.90;;;;;;;16.09;100.00;99772.59;105794;1251;74749;-75
2023/08/11 02:47:20;;;;;;;4.70;3.20;;;;;;;16.08;100.00;99765.90;105847;1251;71213;-77
2023/08/11 02:49:47;;;;;;;3.90;3.20;;;;;;;16.06;100.00;99760.36;105782;1254;72341;-75
2023/08/11 02:52:14;;;;;;;4.90;2.60;;;;;;;16.05;100.00;99757.58;105699;1251;61993;-74
2023/08/11 02:54:41;;;;;;;5.90;3.20;;;;;;;16.03;100.00;99756.64;105762;1255;61131;-75
2023/08/11 02:57:07;;;;;;;7.50;4.40;;;;;;;15.99;100.00;99752.73;105729;1251;73208;-74
2023/08/11 02:59:34;;;;;;;9.20;4.90;;;;;;;15.99;100.00;99752.92;105621;1257;69925;-73
2023/08/11 03:02:02;;;;;;;7.80;4.50;;;;;;;15.96;100.00;99753.96;105787;1251;71207;-74
2023/08/11 03:04:28;;;;;;;13.40;6.00;;;;;;;15.94;100.00;99753.19;105778;1254;61797;-74
2023/08/11 03:06:56;;;;;;;14.80;6.60;;;;;;;15.92;100.00;99750.96;105802;1251;61280;-75
2023/08/11 03:09:23;;;;;;;10.50;5.80;;;;;;;15.91;100.00;99750.14;105679;1257;74633;-75
2023/08/11 03:11:50;;;;;;;13.40;5.80;;;;;;;15.91;100.00;99754.75;105828;1251;71068;-74
2023/08/11 03:14:17;;;;;;;9.50;5.70;;;;;;;15.91;100.00;99752.64;105626;1251;71543;-76
2023/08/11 03:16:44;;;;;;;8.60;5.30;;;;;;;15.91;100.00;99751.58;105605;1257;61293;-76
2023/08/11 03:19:11;;;;;;;11.40;5.30;;;;;;;15.90;100.00;99750.23;105809;1251;61350;-74
2023/08/11 03:21:38;;;;;;;8.30;4.90;;;;;;;15.88;100.00;99752.09;105702;1251;73122;-74
2023/08/11 03:24:05;;;;;;;10.20;4.90;;;;;;;15.88;100.00;99752.10;105674;1253;70814;-75
2023/08/11 03:26:32;;;;;;;13.30;5.70;;;;;;;15.88;100.00;99754.05;105840;1251;72540;-75
2023/08/11 03:29:01;;;;;;;9.80;4.20;;;;;;;15.87;100.00;99757.25;105806;1251;61870;-74
2023/08/11 03:31:28;;;;;;;18.60;4.80;;;;;;;15.88;100.00;99758.79;105652;1257;61185;-75
2023/08/11 03:33:55;;;;;;;16.10;4.10;;;;;;;15.87;100.00;99762.58;105745;1251;74596;-72
2023/08/11 03:36:22;;;;;;;11.10;4.10;;;;;;;15.84;100.00;99765.02;105758;1251;71189;-73
2023/08/11 03:38:49;;;;;;;16.20;3.50;;;;;;;15.84;100.00;99764.70;105713;1251;72440;-74
2023/08/11 03:41:17;;;;;;;12.10;3.90;;;;;;;15.84;100.00;99761.84;105764;1253;61353;-74
2023/08/11 03:43:44;;;;;;;5.20;3.60;;;;;;;15.85;100.00;99764.13;105787;1251;61309;-74
2023/08/11 03:46:11;;;;;;;12.90;3.90;;;;;;;15.85;100.00;99764.98;105803;1251;74551;-75
2023/08/11 03:48:38;;;;;;;7.70;4.40;;;;;;;15.86;100.00;99764.57;105901;1251;71106;-74
2023/08/11 03:51:05;;;;;;;7.00;3.60;;;;;;;15.87;100.00;99764.48;105616;1257;71317;-74
2023/08/11 03:53:31;;;;;;;8.90;4.00;;;;;;;15.90;100.00;99766.86;105743;1251;61692;-74
2023/08/11 03:55:58;;;;;;;6.30;3.70;;;;;;;15.91;100.00;99766.77;105755;1255;61272;-74
2023/08/11 03:58:26;;;;;;;21.90;5.00;;;;;;;15.88;100.00;99765.67;105674;1257;74358;-76
2023/08/11 04:00:54;;;;;;;7.70;4.70;;;;;;;15.87;100.00;99766.45;105724;1251;71037;-74
2023/08/11 04:03:22;;;;;;;7.80;4.80;;;;;;;15.87;100.00;99767.89;105865;1251;72665;-74
2023/08/11 04:05:50;;;;;;;14.90;5.10;;;;;;;15.89;100.00;99769.56;105853;1251;61770;-75
2023/08/11 04:08:17;;;;;;;14.00;5.00;;;;;;;15.91;100.00;99767.48;105846;1255;61285;-77
2023/08/11 04:10:44;;;;;;;11.90;4.90;;;;;;;15.94;100.00;99769.43;105811;1256;73559;-75
2023/08/11 04:13:11;;;;;;;9.10;4.40;;;;;;;15.96;100.00;99769.20;105670;1251;71147;-74
2023/08/11 04:15:39;;;;;;;8.60;3.50;;;;;;;15.97;100.00;99764.14;105873;1251;72441;-74
2023/08/11 04:18:06;;;;;;;5.80;3.90;;;;;;;15.97;100.00;99763.25;105676;1253;61349;-74
2023/08/11 04:20:34;;;;;;;6.90;3.50;;;;;;;15.99;100.00;99762.12;105815;1255;61247;-74
2023/08/11 04:23:02;;;;;;;9.70;3.60;;;;;;;16.01;100.00;99771.20;105868;1251;74350;-74
2023/08/11 04:25:29;;;;;;;5.80;3.50;;;;;;;16.05;100.00;99775.10;105848;1251;71204;-74
2023/08/11 04:27:56;;;;;;;10.70;3.10;;;;;;;16.09;100.00;99781.60;105718;1251;72488;-75
2023/08/11 04:30:23;;;;;;;4.60;3.50;;;;;;;16.15;100.00;99783.38;105611;1257;61478;-75
2023/08/11 04:32:51;;;;;;;6.30;3.60;;;;;;;16.23;100.00;99782.95;105916;1251;61371;-75
2023/08/11 04:35:19;;;;;;;4.90;3.00;;;;;;;16.33;100.00;99781.90;105870;1251;75341;-75
2023/08/11 04:37:46;;;;;;;9.30;3.40;;;;;;;16.44;100.00;99782.55;105831;1251;71209;-76
2023/08/11 04:40:14;;;;;;;5.20;3.10;;;;;;;16.55;100.00;99782.29;105697;1253;72538;-76
2023/08/11 04:42:43;;;;;;;6.60;3.30;;;;;;;16.65;100.00;99788.08;105890;1254;61834;-75
2023/08/11 04:45:12;;;;;;;8.90;4.00;;;;;;;16.75;100.00;99792.90;106005;1252;61234;-75
2023/08/11 04:47:40;;;;;;;6.10;3.50;;;;;;;16.83;100.00;99789.62;105883;1251;74434;-74
2023/08/11 04:50:08;;;;;;;6.70;3.40;;;;;;;16.91;100.00;99788.48;105913;1253;71125;-76
2023/08/11 04:52:35;;;;;;;8.30;4.30;;;;;;;16.98;100.00;99788.27;105927;1251;72441;-75
2023/08/11 04:55:03;;;;;;;9.10;3.60;;;;;;;17.04;100.00;99790.73;105668;1251;61386;-75
2023/08/11 04:57:30;;;;;;;10.30;3.30;;;;;;;17.09;100.00;99793.10;105712;1251;61347;-74
2023/08/11 04:59:58;;;;;;;5.40;3.20;;;;;;;17.17;100.00;99795.89;105977;1251;74500;-75
2023/08/11 05:02:25;;;;;;;6.60;3.60;;;;;;;17.24;100.00;99798.32;105814;1251;70915;-76
2023/08/11 05:04:52;;;;;;;9.70;3.30;;;;;;;17.30;100.00;99796.52;105815;1251;72568;-77
2023/08/11 05:07:20;;;;;;;8.60;3.40;;;;;;;17.38;100.00;99797.67;105861;1251;61271;-76
2023/08/11 05:09:47;;;;;;;6.30;3.20;;;;;;;17.44;100.00;99798.18;105865;1251;62081;-74
2023/08/11 05:12:16;;;;;;;4.30;3.50;;;;;;;17.51;100.00;99794.27;105855;1255;74330;-75
2023/08/11 05:14:43;;;;;;;9.10;3.40;;;;;;;17.57;100.00;99790.88;105893;1251;71653;-76
2023/08/11 05:17:09;;;;;;;5.50;3.60;;;;;;;17.63;100.00;99790.88;105734;1251;71109;-75
2023/08/11 05:19:37;;;;;;;4.60;3.30;;;;;;;17.69;100.00;99790.69;105771;1251;61375;-75
2023/08/11 05:22:03;;;;;;;7.10;3.50;;;;;;;17.75;100.00;99788.77;105774;1251;61184;-75
2023/08/11 05:24:30;;;;;;;10.60;3.50;;;;;;;17.80;100.00;99787.88;105803;1256;73521;-74
2023/08/11 05:26:58;;;;;;;6.30;3.30;;;;;;;17.88;100.00;99790.71;105836;1256;71062;-74
2023/08/11 05:29:24;;;;;;;6.90;3.10;;;;;;;17.96;100.00;99793.58;105798;1251;72494;-75
2023/08/11 05:31:51;;;;;;;7.90;3.40;;;;;;;18.03;100.00;99800.39;105798;1251;61343;-75
2023/08/11 05:34:18;;;;;;;5.80;3.20;;;;;;;18.12;100.00;99801.48;105797;1256;61349;-76
2023/08/11 05:36:45;;;;;;;8.20;3.20;;;;;;;18.20;100.00;99799.36;105929;1255;74643;-75
2023/08/11 05:39:12;;;;;;;5.90;3.20;;;;;;;18.30;100.00;99791.31;105865;1251;71125;-75
2023/08/11 05:41:40;;;;;;;6.40;3.00;;;;;;;18.41;100.00;99791.52;105857;1256;72520;-76
2023/08/11 05:44:08;;;;;;;6.80;2.60;;;;;;;18.52;100.00;99793.79;105989;1256;61250;-76
2023/08/11 05:46:35;;;;;;;6.40;3.30;;;;;;;18.62;100.00;99790.17;106132;1251;61270;-75
2023/08/11 05:49:02;;;;;;;3.70;2.70;;;;;;;18.70;100.00;99781.53;105987;1255;74661;-76
2023/08/11 05:51:30;;;;;;;6.40;3.40;;;;;;;18.75;100.00;99769.95;105925;1251;71097;-76
2023/08/11 05:53:56;;;;;;;11.00;3.80;;;;;;;18.81;100.00;99769.94;105811;1251;72681;-76
2023/08/11 05:56:23;;;;;;;6.70;3.00;;;;;;;18.89;100.00;99769.30;105830;1251;61727;-75
2023/08/11 05:58:50;;;;;;;5.50;2.90;;;;;;;18.96;100.00;99766.50;105797;1251;61233;-76
2023/08/11 06:01:17;;;;;;;7.80;2.90;;;;;;;19.05;100.00;99763.81;105952;1255;74695;-75
2023/08/11 06:03:45;;;;;;;5.80;2.90;;;;;;;19.16;100.00;99762.05;105855;1251;71117;-75
2023/08/11 06:06:12;;;;;;;6.30;3.70;;;;;;;19.24;100.00;99752.43;105832;1251;71422;-76
2023/08/11 06:08:39;;;;;;;7.60;3.20;;;;;;;19.32;100.00;99749.04;105869;1251;61741;-75
2023/08/11 06:11:06;;;;;;;6.40;3.30;;;;;;;19.40;100.00;99750.84;105836;1256;61214;-76
2023/08/11 06:13:32;;;;;;;9.20;3.20;;;;;;;19.49;100.00;99752.71;105833;1255;73519;-75
2023/08/11 06:15:59;;;;;;;5.80;3.20;;;;;;;19.57;100.00;99752.49;105857;1251;69545;-77
2023/08/11 06:18:26;;;;;;;5.20;3.00;;;;;;;19.66;100.00;99749.57;105220;1255;1003060;-76
2023/08/11 06:20:53;;;;;;;5.30;2.80;;;;;;;19.71;100.00;99741.04;105921;1251;61326;-78
2023/08/11 06:23:20;;;;;;;8.90;3.10;;;;;;;19.79;100.00;99743.91;105885;1251;61369;-75
2023/08/11 06:25:47;;;;;;;4.50;2.90;;;;;;;19.89;100.00;99742.89;105778;1251;74636;-75
2023/08/11 06:28:14;;;;;;;8.40;3.20;;;;;;;19.98;100.00;99743.46;105749;1251;71160;-75
2023/08/11 06:30:41;;;;;;;6.80;2.80;;;;;;;20.08;100.00;99745.14;105788;1251;72637;-76
2023/08/11 06:33:13;;;;;;;3.30;3.00;;;;;;;20.19;100.00;99745.04;105801;1251;61238;-75
2023/08/11 06:35:39;;;;;;;3.60;2.50;;;;;;;20.30;100.00;99747.86;105843;1254;61185;-76
2023/08/11 06:38:06;;;;;;;4.60;2.90;;;;;;;20.40;100.00;99744.77;105795;1250;73594;-76
2023/08/11 06:40:34;;;;;;;3.30;2.60;;;;;;;20.50;100.00;99746.05;105864;1251;70982;-76
2023/08/11 06:43:01;;;;;;;7.40;3.10;;;;;;;20.60;100.00;99744.27;105899;1253;71533;-75
2023/08/11 06:45:28;;;;;;;5.70;2.80;;;;;;;20.70;100.00;99737.88;105846;1256;62102;-75
2023/08/11 06:47:56;;;;;;;8.30;2.50;;;;;;;20.80;100.00;99737.31;105840;1251;61360;-75
2023/08/11 06:50:22;;;;;;;7.20;2.90;;;;;;;20.87;100.00;99732.48;105849;1254;74561;-75
2023/08/11 06:52:50;;;;;;;2.50;2.30;;;;;;;20.95;100.00;99729.61;105810;1251;71149;-76
2023/08/11 06:55:17;;;;;;;6.30;2.90;;;;;;;21.04;100.00;99723.98;105874;1251;72768;-74
2023/08/11 06:57:44;;;;;;;4.50;2.80;;;;;;;21.09;100.00;99717.30;105857;1251;61324;-74
2023/08/11 07:00:11;;;;;;;8.10;2.70;;;;;;;21.18;100.00;99719.17;105810;1251;61232;-76
2023/08/11 07:02:39;;;;;;;3.40;2.90;;;;;;;21.26;100.00;99715.18;105865;1254;73591;-76
2023/08/11 07:05:06;;;;;;;3.90;2.70;;;;;;;21.33;100.00;99715.52;105808;1251;71038;-75
2023/08/11 07:07:33;;;;;;;6.70;2.70;;;;;;;21.39;100.00;99708.85;105838;1256;72592;-76
2023/08/11 07:09:59;;;;;;;9.20;3.10;;;;;;;21.45;100.00;99714.77;105764;1255;61155;-75
2023/08/11 07:12:30;;;;;;;7.40;2.90;;;;;;;21.52;100.00;99716.39;105843;1251;61247;-76
2023/08/11 07:14:57;;;;;;;3.50;2.40;;;;;;;21.60;100.00;99718.66;105868;1254;74492;-75
2023/08/11 07:17:24;;;;;;;4.10;2.40;;;;;;;21.67;100.00;99716.81;105772;1251;71005;-76
2023/08/11 07:19:50;;;;;;;5.00;2.90;;;;;;;21.74;100.00;99708.63;105817;1251;71189;-74
2023/08/11 07:22:17;;;;;;;5.70;2.20;;;;;;;21.80;100.00;99704.61;105801;1251;62809;-75
2023/08/11 07:24:44;;;;;;;5.70;3.30;;;;;;;21.87;100.00;99704.77;105823;1251;61244;-75
2023/08/11 07:27:10;;;;;;;7.60;3.20;;;;;;;21.97;100.00;99707.02;105777;1251;74501;-75
2023/08/11 07:29:38;;;;;;;4.70;2.20;;;;;;;22.05;100.00;99706.75;105789;1251;71271;-75
2023/08/11 07:32:05;;;;;;;4.80;2.60;;;;;;;22.11;100.00;99705.74;105883;1251;72485;-74
2023/08/11 07:34:32;;;;;;;4.30;2.70;;;;;;;22.11;100.00;99693.80;105956;1251;61321;-75
2023/08/11 07:36:59;;;;;;;5.50;2.60;;;;;;;22.12;100.00;99696.20;105822;1251;61347;-75
2023/08/11 07:39:26;;;;;;;12.50;2.50;;;;;;;22.16;100.00;99697.66;105864;1256;74356;-76
2023/08/11 07:41:53;;;;;;;10.50;6.20;;;;;;;22.23;100.00;99702.63;105833;1251;71188;-76
2023/08/11 07:44:20;;;;;;;10.90;6.20;;;;;;;22.31;100.00;99703.30;105859;1251;70969;-76
2023/08/11 07:46:47;;;;;;;7.30;4.50;;;;;;;22.39;100.00;99703.73;105941;1250;61297;-75
2023/08/11 07:49:13;;;;;;;18.10;4.20;;;;;;;22.49;100.00;99709.34;105776;1251;61297;-77
2023/08/11 07:51:41;;;;;;;23.50;3.90;;;;;;;22.57;100.00;99709.02;105872;1255;74756;-78
2023/08/11 07:54:10;;;;;;;20.10;3.80;;;;;;;22.64;100.00;99706.66;105848;1251;70912;-75
2023/08/11 07:56:37;;;;;;;14.70;3.40;;;;;;;22.69;100.00;99701.79;105859;1251;72427;-76
2023/08/11 07:59:04;;;;;;;7.90;2.40;;;;;;;22.76;100.00;99700.92;105797;1251;61286;-75
2023/08/11 08:01:31;;;;;;;5.10;2.20;;;;;;;22.84;100.00;99705.04;105832;1253;61214;-76
2023/08/11 08:03:58;;;;;;;6.50;2.20;;;;;;;22.93;100.00;99708.22;105714;1257;74708;-75
2023/08/11 08:06:25;;;;;;;4.80;2.20;;;;;;;23.04;100.00;99714.36;105798;1251;71057;-77
2023/08/11 08:08:52;;;;;;;5.70;2.10;;;;;;;23.14;100.00;99711.14;105942;1251;72637;-76
2023/08/11 08:11:19;;;;;;;3.80;2.00;;;;;;;23.23;100.00;99707.95;105945;1251;61315;-75
2023/08/11 08:13:46;;;;;;;4.10;1.70;;;;;;;23.32;100.00;99705.38;105851;1255;61168;-75
2023/08/11 08:16:12;;;;;;;3.20;2.00;;;;;;;23.42;100.00;99704.40;105790;1253;73244;-75
2023/08/11 08:18:39;;;;;;;5.50;2.10;;;;;;;23.48;100.00;99700.42;105830;1251;71112;-76
2023/08/11 08:21:06;;;;;;;4.00;1.70;;;;;;;23.49;100.00;99697.83;105809;1251;72433;-75
2023/08/11 08:23:33;;;;;;;7.70;2.50;;;;;;;23.47;100.00;99693.36;105896;1251;61673;-75
2023/08/11 08:26:00;;;;;;;4.80;2.10;;;;;;;23.45;100.00;99693.90;105831;1253;61235;-76
2023/08/11 08:28:26;;;;;;;6.60;2.20;;;;;;;23.43;100.00;99701.25;105916;1251;74610;-76
2023/08/11 08:30:53;;;;;;;19.70;3.40;;;;;;;23.43;100.00;99703.08;105883;1253;62633;-75
2023/08/11 08:33:20;;;;;;;6.70;2.50;;;;;;;23.40;100.00;99700.23;105823;1254;72626;-75
2023/08/11 08:35:47;;;;;;;2.40;1.90;;;;;;;23.42;100.00;99705.61;105799;1253;61363;-76
2023/08/11 08:38:13;;;;;;;3.90;2.10;;;;;;;23.47;100.00;99707.54;105802;1255;61157;-77
2023/08/11 08:40:40;;;;;;;5.90;2.30;;;;;;;23.54;100.00;99715.86;105849;1254;74346;-76
2023/08/11 08:43:08;;;;;;;3.60;2.10;;;;;;;23.60;100.00;99709.66;105687;1251;70878;-76
2023/08/11 08:45:35;;;;;;;3.90;2.20;;;;;;;23.64;100.00;99706.06;105933;1253;71363;-76
2023/08/11 08:48:06;;;;;;;4.70;2.10;;;;;;;23.66;100.00;99709.08;105839;1254;61347;-76
2023/08/11 08:50:33;;;;;;;6.60;2.10;;;;;;;23.69;100.00;99710.81;105818;1250;61211;-76
2023/08/11 08:53:01;;;;;;;5.40;2.10;;;;;;;23.72;100.00;99712.16;105778;1255;74707;-75
2023/08/11 08:55:28;;;;;;;4.30;2.00;;;;;;;23.75;100.00;99714.02;105863;1251;70927;-76
2023/08/11 08:57:54;;;;;;;5.80;2.40;;;;;;;23.78;100.00;99713.64;105827;1253;61455;-75
2023/08/11 09:00:21;;;;;;;5.30;2.20;;;;;;;23.79;100.00;99710.16;105795;1255;61247;-75
2023/08/11 09:02:48;;;;;;;13.80;3.10;;;;;;;23.79;100.00;99706.55;105805;1251;61239;-75
2023/08/11 09:05:15;;;;;;;10.10;2.80;;;;;;;23.83;100.00;99704.10;105719;1257;74562;-76
2023/08/11 09:07:42;;;;;;;7.80;2.90;;;;;;;23.88;100.00;99704.54;105827;1251;71105;-75
2023/08/11 09:10:09;;;;;;;4.00;1.90;;;;;;;23.93;100.00;99707.16;105954;1251;71655;-76
2023/08/11 09:12:35;;;;;;;9.60;2.30;;;;;;;24.01;100.00;99710.75;105898;1252;61273;-77
2023/08/11 09:15:09;;;;;;;3.90;2.20;;;;;;;24.09;100.00;99710.70;105877;1251;61401;-76
2023/08/11 09:17:39;;;;;;;6.10;2.30;;;;;;;24.16;100.00;99707.67;105890;1254;74615;-75
2023/08/11 09:20:09;;;;;;;14.10;2.70;;;;;;;24.20;100.00;99702.34;105881;1256;69837;-76
2023/08/11 09:22:38;;;;;;;4.50;2.40;;;;;;;24.26;100.00;99702.79;105886;1251;72736;-76
2023/08/11 09:25:05;;;;;;;7.10;2.20;;;;;;;24.37;100.00;99702.16;105820;1256;61386;-75
2023/08/11 09:27:32;;;;;;;3.90;2.10;;;;;;;24.44;100.00;99690.25;105885;1253;61234;-75
2023/08/11 09:30:00;;;;;;;8.60;2.50;;;;;;;24.47;100.00;99689.27;105963;1251;74504;-76
2023/08/11 09:32:26;;;;;;;9.20;2.90;;;;;;;24.54;100.00;99685.11;105835;1251;71002;-75
2023/08/11 09:34:54;;;;;;;7.00;2.20;;;;;;;24.61;100.00;99686.31;105829;1250;72649;-76
2023/08/11 09:37:20;;;;;;;6.90;3.40;;;;;;;24.70;100.00;99687.99;105872;1251;61261;-75
2023/08/11 09:39:49;;;;;;;7.80;4.30;;;;;;;24.80;100.00;99686.30;105868;1251;61340;-76
2023/08/11 09:42:18;;;;;;;4.80;3.40;;;;;;;24.87;100.00;99688.05;105885;1255;74878;-75
2023/08/11 09:44:45;;;;;;;6.30;2.50;;;;;;;24.95;100.00;99688.82;105864;1253;70921;-75
2023/08/11 09:47:12;;;;;;;8.50;3.10;;;;;;;25.03;100.00;99680.82;105842;1253;72734;-75
2023/08/11 09:49:48;;;;;;;7.90;3.60;;;;;;;25.13;100.00;99675.95;105935;1255;61366;-76
2023/08/11 09:52:15;;;;;;;7.30;3.90;;;;;;;25.16;100.00;99670.29;105836;1254;61346;-75
2023/08/11 09:54:42;;;;;;;6.80;2.90;;;;;;;25.17;100.00;99671.63;105933;1253;73354;-76
2023/08/11 09:57:10;;;;;;;3.50;1.80;;;;;;;25.20;100.00;99671.65;106067;1255;69855;-76
2023/08/11 09:59:37;;;;;;;3.20;1.70;;;;;;;25.25;100.00;99667.35;105786;1254;72564;-76
2023/08/11 10:02:05;;;;;;;2.40;2.20;;;;;;;25.31;100.00;99666.66;105683;1257;61342;-75
2023/08/11 10:04:36;;;;;;;5.30;2.00;;;;;;;25.39;100.00;99662.44;105906;1251;61314;-75
2023/08/11 10:07:03;;;;;;;4.90;2.00;;;;;;;25.50;100.00;99658.16;105900;1253;74457;-77
2023/08/11 10:09:29;;;;;;;2.60;2.00;;;;;;;25.60;100.00;99657.00;105864;1253;62363;-75
2023/08/11 10:11:57;;;;;;;6.90;3.40;;;;;;;25.67;100.00;99652.08;105711;1253;61274;-76
2023/08/11 10:14:24;;;;;;;5.80;4.00;;;;;;;25.71;100.00;99650.39;105864;1251;61283;-74
2023/08/11 10:16:50;;;;;;;6.50;2.20;;;;;;;25.76;100.00;99647.12;105706;1259;61275;-75
2023/08/11 10:19:17;;;;;;;3.90;3.50;;;;;;;25.77;100.00;99646.22;105776;1250;61696;-76
2023/08/11 10:21:44;;;;;;;5.10;4.10;;;;;;;25.76;100.00;99643.80;105745;1256;69897;-76
2023/08/11 10:24:11;;;;;;;10.30;4.50;;;;;;;25.80;100.00;99633.23;105841;1254;72429;-76
2023/08/11 10:26:38;;;;;;;12.10;6.00;;;;;;;25.82;100.00;99635.67;105903;1250;61265;-75
2023/08/11 10:29:04;;;;;;;2.90;2.60;;;;;;;25.90;100.00;99633.98;105782;1257;61245;-75
2023/08/11 10:31:31;;;;;;;4.30;2.20;;;;;;;26.00;100.00;99638.35;105942;1256;74440;-76
2023/08/11 10:34:04;;;;;;;7.20;1.90;;;;;;;26.11;100.00;99637.21;106079;1255;71086;-76
2023/08/11 10:36:32;;;;;;;5.50;1.60;;;;;;;26.25;100.00;99634.07;105865;1253;72559;-75
2023/08/11 10:39:05;;;;;;;1.70;1.40;;;;;;;26.38;100.00;99622.91;105931;1256;61125;-75
2023/08/11 10:41:32;;;;;;;2.90;1.70;;;;;;;26.48;100.00;99624.62;106105;1255;61230;-76
2023/08/11 10:43:59;;;;;;;2.10;1.40;;;;;;;26.52;100.00;99618.47;106071;1253;73146;-75
2023/08/11 10:46:26;;;;;;;7.50;1.60;;;;;;;26.57;100.00;99615.59;105896;1251;70900;-75
2023/08/11 10:49:05;;;;;;;5.00;2.50;;;;;;;26.70;100.00;99611.83;105888;1253;72695;-76
2023/08/11 10:51:39;;;;;;;2.20;2.00;;;;;;;26.82;100.00;99600.23;105941;1251;61524;-75
2023/08/11 10:54:06;;;;;;;4.40;1.70;;;;;;;26.90;100.00;99606.36;106155;1256;61243;-75
2023/08/11 10:56:34;;;;;;;1.40;1.00;;;;;;;27.00;100.00;99612.24;106130;1253;74527;-75
2023/08/11 10:59:28;;;;;;;2.00;1.20;;;;;;;27.12;100.00;99613.40;106211;1256;70108;-76
2023/08/11 11:01:56;;;;;;;1.10;1.00;;;;;;;27.25;100.00;99606.99;106097;1259;72533;-76
2023/08/11 11:04:26;;;;;;;5.60;1.00;;;;;;;27.36;100.00;99609.96;105931;1253;61313;-75
2023/08/11 11:06:53;;;;;;;4.20;1.20;;;;;;;27.43;100.00;99606.36;106049;1253;61177;-76
2023/08/11 11:09:20;;;;;;;7.30;2.00;;;;;;;27.38;100.00;99612.61;106035;1253;75695;-76
2023/08/11 11:11:51;;;;;;;3.50;1.90;;;;;;;27.34;100.00;99613.46;106108;1253;70854;-74
2023/08/11 11:14:18;;;;;;;7.30;2.30;;;;;;;27.30;100.00;99604.27;105400;1251;463430;-75
2023/08/11 11:16:45;;;;;;;10.50;2.50;;;;;;;27.30;100.00;99603.20;105887;1251;61254;-75
2023/08/11 11:19:12;;;;;;;5.90;1.40;;;;;;;27.34;100.00;99604.58;105774;1258;61306;-76